Thursday, September 20, 2018, 12:39 PM GMT
Back to Local

CWDQ, La Tuque

Location: , , Canada Lat: 47.417
Local Time: 12:39 PM GMT (12:39 GMT) Lon: -72.8
Time Zone: GMT Elev: 554 ft

Show me the last for .
Show Coded

Time T Td Feel RH Dir Speed Gust Alt SLP Vis Weather Sky Remarks
2018-09-20 12:00 47 46 - 97 90° 1 - - 30.28 0 None
2018-09-20 11:00 45 45 - 99 - Calm - - 30.26 0 None
2018-09-20 10:00 44 42 - 92 - Calm - - 30.24 0 None
2018-09-20 09:00 43 42 - 99 - Calm - - 30.22 0 None
2018-09-20 08:00 42 42 - 100 90° 2 - - 30.22 0 None
2018-09-20 07:00 41 41 - 99 90° 1 - - 30.23 0 None
2018-09-20 06:00 40 39 - 99 90° 1 - - 30.22 0 None
2018-09-20 05:00 38 38 - 99 - Calm - - 30.21 0 None
2018-09-20 04:00 39 38 - 97 - Calm - - 30.22 0 None
2018-09-20 03:00 42 42 - 97 110° 2 - - 30.19 0 None
2018-09-20 02:00 43 42 - 95 - Calm - - 30.19 0 None
2018-09-20 01:00 50 45 - 82 200° 1 - - 30.19 0 None
2018-09-20 00:00 52 43 - 71 40° 2 - - 30.19 0 None
2018-09-19 23:00 53 42 - 66 30° 3 - - 30.17 0 None
2018-09-19 22:00 54 44 - 70 20° 3 - - 30.15 0 None
2018-09-19 21:00 53 44 - 72 60° 2 - - 30.14 0 None
2018-09-19 20:00 55 44 - 64 30° 2 - - 30.14 0 None
2018-09-19 19:00 55 43 - 64 360° 5 - - 30.12 0 None
2018-09-19 18:00 54 43 - 65 350° 8 - - 30.12 0 None
2018-09-19 17:00 54 43 - 67 330° 6 - - 30.13 0 None
2018-09-19 16:00 52 43 - 71 30° 5 - - 30.13 0 None
2018-09-19 15:00 50 43 - 75 350° 7 - - 30.13 0 None
2018-09-19 14:00 49 43 46 82 350° 6 - - 30.11 0 None
2018-09-19 13:00 48 43 46 83 10° 5 - - 30.10 0 None

Support USWX by starting your Amazon purchase here.